createdAt,value
2022-08-26T00:00:21.323Z,1009.57
2022-08-26T00:01:28.989Z,1009.56
2022-08-26T00:02:22.445Z,1009.59
2022-08-26T00:03:20.521Z,1009.56
2022-08-26T00:04:20.551Z,1009.57
2022-08-26T00:05:20.503Z,1009.58
2022-08-26T00:06:20.877Z,1009.57
2022-08-26T00:07:19.823Z,1009.58
2022-08-26T00:08:20.742Z,1009.60
2022-08-26T00:09:20.472Z,1009.59
2022-08-26T00:10:19.823Z,1009.60
2022-08-26T00:11:26.316Z,1009.59
2022-08-26T00:12:20.755Z,1009.57
2022-08-26T00:13:21.694Z,1009.61
2022-08-26T00:14:19.755Z,1009.61
2022-08-26T00:15:20.401Z,1009.65
2022-08-26T00:16:20.426Z,1009.61
2022-08-26T00:17:20.385Z,1009.62
2022-08-26T00:18:22.408Z,1009.62
2022-08-26T00:19:20.374Z,1009.59
2022-08-26T00:20:20.365Z,1009.60
2022-08-26T00:21:20.342Z,1009.56
2022-08-26T00:22:21.758Z,1009.55
2022-08-26T00:23:20.320Z,1009.48
2022-08-26T00:24:19.656Z,1009.55
2022-08-26T00:25:20.297Z,1009.53
2022-08-26T00:26:20.288Z,1009.56
2022-08-26T00:27:20.279Z,1009.53
2022-08-26T00:28:20.278Z,1009.53
2022-08-26T00:29:21.243Z,1009.52
2022-08-26T00:30:21.391Z,1009.52
2022-08-26T00:31:21.071Z,1009.55
2022-08-26T00:32:20.245Z,1009.62
2022-08-26T00:33:20.201Z,1009.57
2022-08-26T00:34:19.793Z,1009.57
2022-08-26T00:35:20.185Z,1009.58
2022-08-26T00:36:20.344Z,1009.58
2022-08-26T00:37:19.603Z,1009.55
2022-08-26T00:38:19.502Z,1009.56
2022-08-26T00:39:19.558Z,1009.54
2022-08-26T00:40:20.209Z,1009.55
2022-08-26T00:41:20.121Z,1009.52
2022-08-26T00:42:20.110Z,1009.52
2022-08-26T00:43:19.652Z,1009.47
2022-08-26T00:44:19.426Z,1009.45
2022-08-26T00:45:20.083Z,1009.47
2022-08-26T00:46:20.064Z,1009.51
2022-08-26T00:47:20.345Z,1009.47
2022-08-26T00:48:20.048Z,1009.51
2022-08-26T00:49:20.127Z,1009.52
2022-08-26T00:50:20.027Z,1009.54
2022-08-26T00:51:20.016Z,1009.52
2022-08-26T00:52:19.331Z,1009.50
2022-08-26T00:53:19.338Z,1009.54
2022-08-26T00:54:19.339Z,1009.50
2022-08-26T00:55:20.468Z,1009.48
2022-08-26T00:56:19.272Z,1009.48
2022-08-26T00:57:19.952Z,1009.50
2022-08-26T00:58:19.262Z,1009.48
2022-08-26T00:59:19.930Z,1009.47
2022-08-26T01:00:19.923Z,1009.44
2022-08-26T01:01:19.328Z,1009.44
2022-08-26T01:02:21.573Z,1009.41
2022-08-26T01:03:19.211Z,1009.47
2022-08-26T01:04:19.215Z,1009.47
2022-08-26T01:05:19.892Z,1009.48
2022-08-26T01:06:19.171Z,1009.47
2022-08-26T01:07:19.194Z,1009.47
2022-08-26T01:08:19.160Z,1009.44
2022-08-26T01:09:19.815Z,1009.46
2022-08-26T01:10:19.143Z,1009.44
2022-08-26T01:11:19.177Z,1009.47
2022-08-26T01:12:22.202Z,1009.46
2022-08-26T01:13:20.084Z,1009.49
2022-08-26T01:14:20.133Z,1009.51
2022-08-26T01:15:19.763Z,1009.53
2022-08-26T01:16:19.763Z,1009.55
2022-08-26T01:17:19.076Z,1009.58
2022-08-26T01:18:19.715Z,1009.63
2022-08-26T01:19:19.085Z,1009.62
2022-08-26T01:20:19.081Z,1009.66
2022-08-26T01:21:19.691Z,1009.78
2022-08-26T01:22:19.174Z,1009.81
2022-08-26T01:23:18.999Z,1009.81
2022-08-26T01:24:19.664Z,1009.81
2022-08-26T01:25:19.099Z,1009.79
2022-08-26T01:26:19.910Z,1009.78
2022-08-26T01:27:18.949Z,1009.81
2022-08-26T01:28:19.031Z,1009.79
2022-08-26T01:29:20.195Z,1009.81
2022-08-26T01:30:19.614Z,1009.81
2022-08-26T01:31:18.984Z,1009.81
2022-08-26T01:32:18.901Z,1009.78
2022-08-26T01:33:18.947Z,1009.79
2022-08-26T01:34:18.900Z,1009.78
2022-08-26T01:35:19.534Z,1009.74
2022-08-26T01:36:18.851Z,1009.79
2022-08-26T01:37:19.820Z,1009.81
2022-08-26T01:38:19.513Z,1009.82
2022-08-26T01:39:19.500Z,1009.82
2022-08-26T01:40:18.834Z,1009.83
2022-08-26T01:41:19.962Z,1009.81
2022-08-26T01:42:20.462Z,1009.78
2022-08-26T01:43:19.358Z,1009.81
2022-08-26T01:44:18.765Z,1009.77
2022-08-26T01:45:18.741Z,1009.78
2022-08-26T01:46:19.425Z,1009.78
2022-08-26T01:47:19.415Z,1009.79
2022-08-26T01:48:18.765Z,1009.87
2022-08-26T01:49:18.725Z,1009.82
2022-08-26T01:50:28.156Z,1009.88
2022-08-26T01:51:19.936Z,1009.86
2022-08-26T01:52:19.371Z,1009.80
2022-08-26T01:53:19.359Z,1009.78
2022-08-26T01:54:20.485Z,1009.80
2022-08-26T01:55:32.213Z,1009.85
2022-08-26T01:56:21.609Z,1009.93
2022-08-26T01:57:18.658Z,1009.89
2022-08-26T01:58:18.668Z,1009.85
2022-08-26T01:59:18.688Z,1009.83
2022-08-26T02:00:18.661Z,1009.83
2022-08-26T02:01:21.178Z,1009.86
2022-08-26T02:02:18.568Z,1009.87
2022-08-26T02:03:18.602Z,1009.77
2022-08-26T02:04:19.282Z,1009.73
2022-08-26T02:05:19.229Z,1009.75
2022-08-26T02:06:19.326Z,1009.78
2022-08-26T02:07:19.203Z,1009.78
2022-08-26T02:08:24.717Z,1009.79
2022-08-26T02:09:20.313Z,1009.84
2022-08-26T02:10:19.719Z,1009.83
2022-08-26T02:11:19.163Z,1009.82
2022-08-26T02:12:19.131Z,1009.83
2022-08-26T02:13:18.454Z,1009.86
2022-08-26T02:14:18.453Z,1009.84
2022-08-26T02:15:19.122Z,1009.79
2022-08-26T02:16:19.159Z,1009.75
2022-08-26T02:17:19.826Z,1009.75
2022-08-26T02:18:19.078Z,1009.72
2022-08-26T02:19:18.385Z,1009.74
2022-08-26T02:20:18.376Z,1009.75
2022-08-26T02:21:19.045Z,1009.79
2022-08-26T02:22:18.349Z,1009.82
2022-08-26T02:23:18.367Z,1009.86
2022-08-26T02:24:19.087Z,1009.81
2022-08-26T02:25:19.010Z,1009.81
2022-08-26T02:26:19.351Z,1009.83
2022-08-26T02:27:18.327Z,1009.82
2022-08-26T02:28:18.311Z,1009.84
2022-08-26T02:29:18.269Z,1009.84
2022-08-26T02:30:18.348Z,1009.87
2022-08-26T02:31:18.292Z,1009.85
2022-08-26T02:32:18.940Z,1009.83
2022-08-26T02:33:18.921Z,1009.85
2022-08-26T02:34:18.916Z,1009.84
2022-08-26T02:35:20.248Z,1009.80
2022-08-26T02:36:18.891Z,1009.82
2022-08-26T02:37:18.881Z,1009.79
2022-08-26T02:38:18.869Z,1009.82
2022-08-26T02:39:22.158Z,1009.79
2022-08-26T02:40:18.896Z,1009.84
2022-08-26T02:41:18.181Z,1009.86
2022-08-26T02:42:18.825Z,1009.84
2022-08-26T02:43:18.827Z,1009.82
2022-08-26T02:44:20.543Z,1009.80
2022-08-26T02:45:23.093Z,1009.79
2022-08-26T02:46:21.517Z,1009.84
2022-08-26T02:47:19.764Z,1009.83
2022-08-26T02:48:19.766Z,1009.85
2022-08-26T02:49:18.746Z,1009.86
2022-08-26T02:50:18.735Z,1009.82
2022-08-26T02:51:18.728Z,1009.83
2022-08-26T02:52:18.717Z,1009.83
2022-08-26T02:53:23.169Z,1009.87
2022-08-26T02:54:19.701Z,1009.88
2022-08-26T02:55:18.679Z,1009.88
2022-08-26T02:56:17.988Z,1009.87
2022-08-26T02:57:17.987Z,1009.81
2022-08-26T02:58:18.007Z,1009.86
2022-08-26T02:59:18.637Z,1009.89
2022-08-26T03:00:17.975Z,1009.96
2022-08-26T03:01:18.947Z,1009.90
2022-08-26T03:02:18.626Z,1009.85
2022-08-26T03:03:18.604Z,1009.87
2022-08-26T03:04:18.591Z,1009.88
2022-08-26T03:05:17.928Z,1009.86
2022-08-26T03:06:18.572Z,1009.85
2022-08-26T03:07:18.563Z,1009.85
2022-08-26T03:08:17.863Z,1009.85
2022-08-26T03:09:18.883Z,1009.83
2022-08-26T03:10:18.522Z,1009.80
2022-08-26T03:11:17.854Z,1009.80
2022-08-26T03:12:17.843Z,1009.83
2022-08-26T03:13:18.493Z,1009.80
2022-08-26T03:14:18.485Z,1009.83
2022-08-26T03:15:18.399Z,1009.87
2022-08-26T03:16:18.611Z,1009.80
2022-08-26T03:17:17.784Z,1009.78
2022-08-26T03:18:18.468Z,1009.81
2022-08-26T03:19:18.434Z,1009.80
2022-08-26T03:20:18.427Z,1009.85
2022-08-26T03:21:18.416Z,1009.81
2022-08-26T03:22:20.583Z,1009.74
2022-08-26T03:23:18.510Z,1009.79
2022-08-26T03:24:18.378Z,1009.78
2022-08-26T03:25:21.377Z,1009.78
2022-08-26T03:26:17.737Z,1009.77
2022-08-26T03:27:17.639Z,1009.79
2022-08-26T03:28:23.418Z,1009.77
2022-08-26T03:29:17.787Z,1009.77
2022-08-26T03:30:18.305Z,1009.77
2022-08-26T03:31:18.351Z,1009.82
2022-08-26T03:32:18.288Z,1009.81
2022-08-26T03:33:18.278Z,1009.79
2022-08-26T03:34:17.589Z,1009.79
2022-08-26T03:35:17.608Z,1009.77
2022-08-26T03:36:18.241Z,1009.79
2022-08-26T03:37:17.570Z,1009.80
2022-08-26T03:38:18.387Z,1009.77
2022-08-26T03:39:18.202Z,1009.78
2022-08-26T03:40:20.178Z,1009.76
2022-08-26T03:41:17.539Z,1009.82
2022-08-26T03:42:17.541Z,1009.78
2022-08-26T03:43:18.912Z,1009.81
2022-08-26T03:44:18.164Z,1009.78
2022-08-26T03:45:17.480Z,1009.75
2022-08-26T03:46:18.162Z,1009.76
2022-08-26T03:47:17.571Z,1009.80
2022-08-26T03:48:18.105Z,1009.82
2022-08-26T03:49:17.409Z,1009.86
2022-08-26T03:50:17.499Z,1009.83
2022-08-26T03:51:20.335Z,1009.85
2022-08-26T03:52:18.065Z,1009.85
2022-08-26T03:53:17.616Z,1009.82
2022-08-26T03:54:18.395Z,1009.86
2022-08-26T03:55:18.033Z,1009.88
2022-08-26T03:56:17.390Z,1009.88
2022-08-26T03:57:18.016Z,1009.88
2022-08-26T03:58:18.286Z,1009.88
2022-08-26T03:59:18.194Z,1009.89
2022-08-26T04:00:19.937Z,1009.89
2022-08-26T04:01:17.342Z,1009.91
2022-08-26T04:02:17.275Z,1009.93
2022-08-26T04:03:18.916Z,1009.92
2022-08-26T04:04:17.499Z,1009.89
2022-08-26T04:05:19.030Z,1009.92
2022-08-26T04:06:17.919Z,1009.92
2022-08-26T04:07:17.230Z,1009.87
2022-08-26T04:08:17.899Z,1009.87
2022-08-26T04:09:17.264Z,1009.89
2022-08-26T04:10:17.224Z,1009.84
2022-08-26T04:11:17.203Z,1009.90
2022-08-26T04:12:17.851Z,1009.87
2022-08-26T04:13:17.312Z,1009.87
2022-08-26T04:14:20.111Z,1009.83
2022-08-26T04:15:17.852Z,1009.83
2022-08-26T04:16:17.840Z,1009.80
2022-08-26T04:17:19.585Z,1009.85
2022-08-26T04:18:19.548Z,1009.81
2022-08-26T04:19:17.135Z,1009.80
2022-08-26T04:20:17.800Z,1009.83
2022-08-26T04:21:17.064Z,1009.83
2022-08-26T04:22:17.091Z,1009.80
2022-08-26T04:23:18.166Z,1009.83
2022-08-26T04:24:17.673Z,1009.86
2022-08-26T04:25:17.034Z,1009.84
2022-08-26T04:26:17.704Z,1009.82
2022-08-26T04:27:17.708Z,1009.87
2022-08-26T04:28:17.685Z,1009.85
2022-08-26T04:29:17.027Z,1009.86
2022-08-26T04:30:16.977Z,1009.91
2022-08-26T04:31:17.716Z,1009.95
2022-08-26T04:32:17.651Z,1009.91
2022-08-26T04:33:17.699Z,1009.91
2022-08-26T04:34:19.869Z,1009.91
2022-08-26T04:35:17.610Z,1009.90
2022-08-26T04:36:16.939Z,1009.86
2022-08-26T04:37:16.880Z,1009.91
2022-08-26T04:38:16.908Z,1009.92
2022-08-26T04:39:18.621Z,1009.90
2022-08-26T04:40:16.992Z,1009.88
2022-08-26T04:41:17.548Z,1009.87
2022-08-26T04:42:21.032Z,1009.90
2022-08-26T04:43:20.659Z,1009.96
2022-08-26T04:44:17.525Z,1009.94
2022-08-26T04:45:17.516Z,1009.95
2022-08-26T04:46:17.510Z,1009.93
2022-08-26T04:47:17.481Z,1009.96
2022-08-26T04:48:17.006Z,1009.94
2022-08-26T04:49:17.462Z,1009.97
2022-08-26T04:50:16.772Z,1009.99
2022-08-26T04:51:17.445Z,1009.99
2022-08-26T04:52:17.425Z,1009.98
2022-08-26T04:53:17.423Z,1009.99
2022-08-26T04:54:17.405Z,1010.00
2022-08-26T04:55:17.396Z,1010.04
2022-08-26T04:56:17.396Z,1010.04
2022-08-26T04:57:17.377Z,1010.09
2022-08-26T04:58:16.706Z,1010.08
2022-08-26T04:59:18.148Z,1010.12
2022-08-26T05:00:17.354Z,1010.11
2022-08-26T05:01:16.703Z,1010.13
2022-08-26T05:02:17.318Z,1010.14
2022-08-26T05:03:16.637Z,1010.12
2022-08-26T05:04:19.035Z,1010.14
2022-08-26T05:05:18.118Z,1010.18
2022-08-26T05:06:16.619Z,1010.18
2022-08-26T05:07:17.713Z,1010.14
2022-08-26T05:08:16.592Z,1010.17
2022-08-26T05:09:17.252Z,1010.15
2022-08-26T05:10:17.230Z,1010.21
2022-08-26T05:11:16.550Z,1010.19
2022-08-26T05:12:16.519Z,1010.22
2022-08-26T05:13:16.588Z,1010.22
2022-08-26T05:14:17.211Z,1010.22
2022-08-26T05:15:17.182Z,1010.21
2022-08-26T05:16:17.274Z,1010.22
2022-08-26T05:17:16.481Z,1010.19
2022-08-26T05:18:16.472Z,1010.28
2022-08-26T05:19:17.243Z,1010.26
2022-08-26T05:20:17.136Z,1010.25
2022-08-26T05:21:17.124Z,1010.26
2022-08-26T05:22:17.114Z,1010.24
2022-08-26T05:23:16.456Z,1010.27
2022-08-26T05:24:17.087Z,1010.27
2022-08-26T05:25:17.076Z,1010.28
2022-08-26T05:26:17.066Z,1010.28
2022-08-26T05:27:17.405Z,1010.22
2022-08-26T05:28:16.356Z,1010.22
2022-08-26T05:29:16.836Z,1010.27
2022-08-26T05:30:17.016Z,1010.24
2022-08-26T05:31:17.074Z,1010.21
2022-08-26T05:32:16.326Z,1010.26
2022-08-26T05:33:16.345Z,1010.27
2022-08-26T05:34:16.977Z,1010.32
2022-08-26T05:35:17.742Z,1010.38
2022-08-26T05:36:16.957Z,1010.33
2022-08-26T05:37:16.298Z,1010.35
2022-08-26T05:38:16.254Z,1010.32
2022-08-26T05:39:16.287Z,1010.30
2022-08-26T05:40:16.247Z,1010.31
2022-08-26T05:41:16.678Z,1010.32
2022-08-26T05:42:17.638Z,1010.30
2022-08-26T05:43:16.890Z,1010.30
2022-08-26T05:44:16.875Z,1010.25
2022-08-26T05:45:16.232Z,1010.31
2022-08-26T05:46:16.896Z,1010.34
2022-08-26T05:47:16.840Z,1010.38
2022-08-26T05:48:16.821Z,1010.35
2022-08-26T05:49:16.131Z,1010.37
2022-08-26T05:50:16.135Z,1010.39
2022-08-26T05:51:16.188Z,1010.36
2022-08-26T05:52:16.782Z,1010.38
2022-08-26T05:53:16.369Z,1010.39
2022-08-26T05:54:21.297Z,1010.40
2022-08-26T05:55:17.093Z,1010.37
2022-08-26T05:56:16.054Z,1010.40
2022-08-26T05:57:16.103Z,1010.40
2022-08-26T05:58:17.485Z,1010.42
2022-08-26T05:59:16.706Z,1010.38
2022-08-26T06:00:16.685Z,1010.38
2022-08-26T06:01:16.754Z,1010.38
2022-08-26T06:02:16.673Z,1010.39
2022-08-26T06:03:16.094Z,1010.32
2022-08-26T06:04:16.646Z,1010.39
2022-08-26T06:05:17.436Z,1010.40
2022-08-26T06:06:16.631Z,1010.42
2022-08-26T06:07:15.978Z,1010.41
2022-08-26T06:08:19.152Z,1010.42
2022-08-26T06:09:18.200Z,1010.42
2022-08-26T06:10:37.601Z,1010.39
2022-08-26T06:11:18.352Z,1010.43
2022-08-26T06:12:15.891Z,1010.44
2022-08-26T06:13:16.809Z,1010.43
2022-08-26T06:14:15.861Z,1010.45
2022-08-26T06:15:17.821Z,1010.48
2022-08-26T06:16:16.842Z,1010.51
2022-08-26T06:17:15.844Z,1010.47
2022-08-26T06:18:16.557Z,1010.50
2022-08-26T06:19:16.491Z,1010.50
2022-08-26T06:20:15.795Z,1010.51
2022-08-26T06:21:15.831Z,1010.51
2022-08-26T06:22:19.484Z,1010.54
2022-08-26T06:23:16.771Z,1010.48
2022-08-26T06:24:15.802Z,1010.52
2022-08-26T06:25:15.753Z,1010.54
2022-08-26T06:26:15.745Z,1010.57
2022-08-26T06:27:16.395Z,1010.60
2022-08-26T06:28:15.707Z,1010.57
2022-08-26T06:29:24.143Z,1010.60
2022-08-26T06:30:16.714Z,1010.57
2022-08-26T06:31:15.788Z,1010.60
2022-08-26T06:32:15.665Z,1010.65
2022-08-26T06:33:16.613Z,1010.64
2022-08-26T06:34:15.649Z,1010.65
2022-08-26T06:35:16.317Z,1010.65
2022-08-26T06:36:16.309Z,1010.67
2022-08-26T06:37:16.311Z,1010.69
2022-08-26T06:38:16.287Z,1010.63
2022-08-26T06:39:15.658Z,1010.65
2022-08-26T06:40:15.642Z,1010.65
2022-08-26T06:41:16.260Z,1010.67
2022-08-26T06:42:15.779Z,1010.68
2022-08-26T06:43:15.572Z,1010.71
2022-08-26T06:44:16.240Z,1010.70
2022-08-26T06:45:16.210Z,1010.71
2022-08-26T06:46:15.606Z,1010.70
2022-08-26T06:47:15.502Z,1010.75
2022-08-26T06:48:15.535Z,1010.74
2022-08-26T06:49:15.491Z,1010.79
2022-08-26T06:50:16.165Z,1010.79
2022-08-26T06:51:15.553Z,1010.80
2022-08-26T06:52:21.162Z,1010.82
2022-08-26T06:53:16.444Z,1010.78
2022-08-26T06:54:15.512Z,1010.84
2022-08-26T06:55:15.433Z,1010.80
2022-08-26T06:56:16.095Z,1010.84
2022-08-26T06:57:16.787Z,1010.83
2022-08-26T06:58:15.394Z,1010.85
2022-08-26T06:59:16.070Z,1010.85
2022-08-26T07:00:15.372Z,1010.86
2022-08-26T07:01:16.068Z,1010.86
2022-08-26T07:02:16.090Z,1010.89
2022-08-26T07:03:15.454Z,1010.89
2022-08-26T07:04:16.021Z,1010.91
2022-08-26T07:05:17.005Z,1010.90
2022-08-26T07:06:15.986Z,1010.88
2022-08-26T07:07:15.338Z,1010.92
2022-08-26T07:08:15.288Z,1010.92
2022-08-26T07:09:15.397Z,1010.91
2022-08-26T07:10:15.950Z,1010.89
2022-08-26T07:11:15.272Z,1010.87
2022-08-26T07:12:15.298Z,1010.87
2022-08-26T07:13:15.262Z,1010.88
2022-08-26T07:14:15.220Z,1010.87
2022-08-26T07:41:31.418Z,1011.08
2022-08-26T07:42:24.482Z,1011.07
2022-08-26T07:43:25.157Z,1011.06
2022-08-26T07:44:24.483Z,1011.10
2022-08-26T07:45:24.493Z,1011.16
2022-08-26T07:46:27.520Z,1011.16
2022-08-26T07:47:26.463Z,1011.20
2022-08-26T07:48:24.435Z,1011.21
2022-08-26T07:49:24.484Z,1011.22
2022-08-26T07:50:49.540Z,1011.21
2022-08-26T07:51:26.100Z,1011.21
2022-08-26T07:52:27.083Z,1011.25
2022-08-26T07:53:25.056Z,1011.25
2022-08-26T07:54:26.838Z,1011.29
2022-08-26T07:55:24.374Z,1011.29
2022-08-26T07:56:25.099Z,1011.31
2022-08-26T07:57:24.511Z,1011.27
2022-08-26T07:58:24.995Z,1011.28
2022-08-26T07:59:24.308Z,1011.30
2022-08-26T08:00:24.970Z,1011.32
2022-08-26T08:01:24.384Z,1011.30
2022-08-26T08:02:24.246Z,1011.34
2022-08-26T08:03:24.947Z,1011.33
2022-08-26T08:04:26.610Z,1011.32
2022-08-26T08:05:33.348Z,1011.35
2022-08-26T08:06:27.009Z,1011.36
2022-08-26T08:07:38.640Z,1011.32
2022-08-26T08:08:27.965Z,1011.34
2022-08-26T08:09:24.889Z,1011.34
2022-08-26T08:10:25.060Z,1011.36
2022-08-26T08:11:24.855Z,1011.32
2022-08-26T08:12:24.174Z,1011.38
2022-08-26T08:13:24.156Z,1011.32
2022-08-26T08:14:24.199Z,1011.37
2022-08-26T08:15:24.835Z,1011.36
2022-08-26T08:16:24.169Z,1011.38
2022-08-26T08:17:26.125Z,1011.39
2022-08-26T08:18:24.795Z,1011.42
2022-08-26T08:19:29.945Z,1011.42
2022-08-26T08:20:25.196Z,1011.39
2022-08-26T08:21:24.762Z,1011.43
2022-08-26T08:22:24.069Z,1011.43
2022-08-26T08:23:24.050Z,1011.46
2022-08-26T08:24:24.726Z,1011.44
2022-08-26T08:25:24.709Z,1011.45
2022-08-26T08:26:24.699Z,1011.46
2022-08-26T08:27:24.709Z,1011.51
2022-08-26T08:28:24.670Z,1011.52
2022-08-26T08:29:24.669Z,1011.51
2022-08-26T08:30:24.114Z,1011.52
2022-08-26T08:31:54.513Z,1011.58
2022-08-26T08:32:26.521Z,1011.57
2022-08-26T08:33:24.646Z,1011.58
2022-08-26T08:34:23.936Z,1011.55
2022-08-26T08:35:23.908Z,1011.55
2022-08-26T08:36:24.590Z,1011.54
2022-08-26T08:37:24.673Z,1011.60
2022-08-26T08:38:24.572Z,1011.56
2022-08-26T08:39:24.561Z,1011.53
2022-08-26T08:40:24.598Z,1011.56
2022-08-26T08:41:23.918Z,1011.52
2022-08-26T08:42:23.864Z,1011.54
2022-08-26T08:43:24.514Z,1011.52
2022-08-26T08:44:31.225Z,1011.53
2022-08-26T08:45:24.803Z,1011.55
2022-08-26T08:46:24.551Z,1011.51
2022-08-26T08:47:23.853Z,1011.52
2022-08-26T08:48:27.807Z,1011.51
2022-08-26T08:49:23.769Z,1011.51
2022-08-26T08:50:24.423Z,1011.52
2022-08-26T08:51:23.785Z,1011.49
2022-08-26T08:52:23.786Z,1011.49
2022-08-26T08:53:23.738Z,1011.52
2022-08-26T08:54:24.410Z,1011.52
2022-08-26T08:55:24.389Z,1011.48
2022-08-26T08:56:23.847Z,1011.43
2022-08-26T08:57:24.370Z,1011.44
2022-08-26T08:58:23.718Z,1011.43
2022-08-26T08:59:23.705Z,1011.44
2022-08-26T09:00:30.196Z,1011.45
2022-08-26T09:01:24.712Z,1011.40
2022-08-26T09:02:24.364Z,1011.43
2022-08-26T09:03:23.651Z,1011.41
2022-08-26T09:04:24.292Z,1011.45
2022-08-26T09:05:24.274Z,1011.43
2022-08-26T09:06:24.322Z,1011.45
2022-08-26T09:07:24.023Z,1011.41
2022-08-26T09:08:24.350Z,1011.47
2022-08-26T09:09:23.618Z,1011.48
2022-08-26T09:10:24.230Z,1011.49
2022-08-26T09:11:24.250Z,1011.53
2022-08-26T09:12:29.594Z,1011.52
2022-08-26T09:13:27.154Z,1011.54
2022-08-26T09:14:23.509Z,1011.52
2022-08-26T09:15:25.462Z,1011.58
2022-08-26T09:16:24.242Z,1011.54
2022-08-26T09:17:25.121Z,1011.58
2022-08-26T09:18:24.148Z,1011.53
2022-08-26T09:19:24.122Z,1011.57
2022-08-26T09:20:24.125Z,1011.55
2022-08-26T09:21:25.255Z,1011.56
2022-08-26T09:23:24.138Z,1011.58
2022-08-26T09:24:24.076Z,1011.60
2022-08-26T09:25:23.503Z,1011.61
2022-08-26T09:26:27.153Z,1011.60
2022-08-26T09:27:25.790Z,1011.65
2022-08-26T09:28:24.310Z,1011.67
2022-08-26T09:29:23.499Z,1011.66
2022-08-26T09:30:23.310Z,1011.66
2022-08-26T09:31:24.036Z,1011.69
2022-08-26T09:32:24.172Z,1011.64
2022-08-26T09:33:24.037Z,1011.68
2022-08-26T09:34:23.994Z,1011.64
2022-08-26T09:35:23.301Z,1011.65
2022-08-26T09:36:24.834Z,1011.65
2022-08-26T09:37:24.013Z,1011.67
2022-08-26T09:38:23.311Z,1011.67
2022-08-26T09:39:24.676Z,1011.69
2022-08-26T09:40:23.252Z,1011.66
2022-08-26T09:41:23.904Z,1011.65
2022-08-26T09:42:23.264Z,1011.69
2022-08-26T09:43:23.864Z,1011.65
2022-08-26T09:44:23.184Z,1011.62
2022-08-26T09:45:23.855Z,1011.67
2022-08-26T09:46:23.897Z,1011.63
2022-08-26T09:47:23.839Z,1011.67
2022-08-26T09:48:23.822Z,1011.62
2022-08-26T09:49:23.848Z,1011.61
2022-08-26T09:50:29.091Z,1011.62
2022-08-26T09:51:23.827Z,1011.62
2022-08-26T09:52:23.781Z,1011.63
2022-08-26T09:53:28.603Z,1011.64
2022-08-26T09:54:24.143Z,1011.63
2022-08-26T09:55:24.759Z,1011.63
2022-08-26T09:56:23.049Z,1011.61
2022-08-26T09:57:23.730Z,1011.60
2022-08-26T09:58:23.710Z,1011.61
2022-08-26T09:59:23.020Z,1011.59
2022-08-26T10:00:23.076Z,1011.60
2022-08-26T10:01:23.055Z,1011.64
2022-08-26T10:02:23.691Z,1011.59
2022-08-26T10:03:23.662Z,1011.61
2022-08-26T10:04:23.241Z,1011.60
2022-08-26T10:05:23.645Z,1011.62
2022-08-26T10:06:23.118Z,1011.57
2022-08-26T10:07:22.926Z,1011.63
2022-08-26T10:08:23.630Z,1011.62
2022-08-26T10:09:23.604Z,1011.59
2022-08-26T10:10:22.956Z,1011.58
2022-08-26T10:11:23.576Z,1011.57
2022-08-26T10:12:23.587Z,1011.58
2022-08-26T10:13:23.408Z,1011.65
2022-08-26T10:14:23.604Z,1011.61
2022-08-26T10:15:22.934Z,1011.61
2022-08-26T10:16:23.584Z,1011.62
2022-08-26T10:17:22.958Z,1011.59
2022-08-26T10:18:23.521Z,1011.56
2022-08-26T10:19:22.808Z,1011.61
2022-08-26T10:20:24.043Z,1011.56
2022-08-26T10:21:23.473Z,1011.59
2022-08-26T10:22:23.471Z,1011.56
2022-08-26T10:23:23.291Z,1011.60
2022-08-26T10:24:23.430Z,1011.57
2022-08-26T10:25:23.660Z,1011.51
2022-08-26T10:26:23.642Z,1011.57
2022-08-26T10:27:22.725Z,1011.53
2022-08-26T10:28:23.396Z,1011.54
2022-08-26T10:29:23.391Z,1011.58
2022-08-26T10:30:23.382Z,1011.58
2022-08-26T10:31:27.485Z,1011.57
2022-08-26T10:32:24.422Z,1011.55
2022-08-26T10:33:23.341Z,1011.56
2022-08-26T10:34:22.752Z,1011.57
2022-08-26T10:35:22.642Z,1011.62
2022-08-26T10:36:23.458Z,1011.58
2022-08-26T10:37:23.394Z,1011.60
2022-08-26T10:38:23.286Z,1011.58
2022-08-26T10:39:23.289Z,1011.51
2022-08-26T10:40:23.338Z,1011.52
2022-08-26T10:41:23.259Z,1011.49
2022-08-26T10:42:22.868Z,1011.49
2022-08-26T10:43:23.235Z,1011.50
2022-08-26T10:44:23.234Z,1011.51
2022-08-26T10:45:23.226Z,1011.48
2022-08-26T10:46:22.580Z,1011.48
2022-08-26T10:47:24.211Z,1011.46
2022-08-26T10:48:22.521Z,1011.52
2022-08-26T10:49:22.499Z,1011.47
2022-08-26T10:50:22.632Z,1011.44
2022-08-26T10:51:23.167Z,1011.45
2022-08-26T10:52:22.473Z,1011.44
2022-08-26T10:53:25.164Z,1011.44
2022-08-26T10:54:22.621Z,1011.44
2022-08-26T10:55:23.110Z,1011.40
2022-08-26T10:56:23.100Z,1011.43
2022-08-26T10:57:22.434Z,1011.44
2022-08-26T10:58:26.657Z,1011.43
2022-08-26T10:59:23.457Z,1011.38
2022-08-26T11:00:23.066Z,1011.39
2022-08-26T11:01:23.316Z,1011.42
2022-08-26T11:02:25.023Z,1011.43
2022-08-26T11:03:23.024Z,1011.40
2022-08-26T11:04:22.660Z,1011.38
2022-08-26T11:05:22.455Z,1011.40
2022-08-26T11:06:22.997Z,1011.39
2022-08-26T11:07:22.982Z,1011.38
2022-08-26T11:08:22.982Z,1011.38
2022-08-26T11:09:22.970Z,1011.41
2022-08-26T11:10:24.057Z,1011.41
2022-08-26T11:11:22.938Z,1011.43
2022-08-26T11:12:23.185Z,1011.41
2022-08-26T11:13:22.915Z,1011.43
2022-08-26T11:14:28.968Z,1011.44
2022-08-26T11:15:24.608Z,1011.44
2022-08-26T11:16:22.254Z,1011.43
2022-08-26T11:17:22.875Z,1011.42
2022-08-26T11:18:22.562Z,1011.43
2022-08-26T11:19:22.851Z,1011.47
2022-08-26T11:20:22.183Z,1011.46
2022-08-26T11:21:24.616Z,1011.44
2022-08-26T11:22:23.241Z,1011.38
2022-08-26T11:23:22.163Z,1011.41
2022-08-26T11:24:22.167Z,1011.43
2022-08-26T11:25:24.432Z,1011.39
2022-08-26T11:26:36.256Z,1011.40
2022-08-26T11:27:24.519Z,1011.41
2022-08-26T11:28:22.116Z,1011.43
2022-08-26T11:29:22.517Z,1011.38
2022-08-26T11:30:22.748Z,1011.45
2022-08-26T11:31:22.188Z,1011.42
2022-08-26T11:32:22.716Z,1011.42
2022-08-26T11:33:22.706Z,1011.48
2022-08-26T11:34:22.691Z,1011.45
2022-08-26T11:35:22.692Z,1011.47
2022-08-26T11:36:22.673Z,1011.44
2022-08-26T11:37:22.013Z,1011.40
2022-08-26T11:38:21.958Z,1011.41
2022-08-26T11:39:36.616Z,1011.40
2022-08-26T11:40:22.014Z,1011.40
2022-08-26T11:41:22.617Z,1011.41
2022-08-26T11:42:23.345Z,1011.39
2022-08-26T11:43:24.356Z,1011.39
2022-08-26T11:44:21.918Z,1011.39
2022-08-26T11:45:22.631Z,1011.42
2022-08-26T11:46:22.550Z,1011.37
2022-08-26T11:47:22.555Z,1011.34
2022-08-26T11:48:21.890Z,1011.37
2022-08-26T11:49:21.902Z,1011.40
2022-08-26T11:50:22.520Z,1011.40
2022-08-26T11:51:21.874Z,1011.41
2022-08-26T11:52:21.934Z,1011.39
2022-08-26T11:53:21.837Z,1011.34
2022-08-26T11:54:30.770Z,1011.39
2022-08-26T11:55:25.351Z,1011.36
2022-08-26T11:56:21.799Z,1011.33
2022-08-26T11:57:22.442Z,1011.34
2022-08-26T11:58:22.391Z,1011.41
2022-08-26T11:59:22.474Z,1011.34
2022-08-26T12:00:22.522Z,1011.33
2022-08-26T12:01:22.416Z,1011.31
2022-08-26T12:02:23.176Z,1011.30
2022-08-26T12:03:21.797Z,1011.32
2022-08-26T12:04:24.234Z,1011.28
2022-08-26T12:05:22.656Z,1011.28
2022-08-26T12:06:22.443Z,1011.29
2022-08-26T12:07:23.866Z,1011.24
2022-08-26T12:08:21.753Z,1011.22
2022-08-26T12:09:22.589Z,1011.22
2022-08-26T12:10:22.675Z,1011.25
2022-08-26T12:11:22.333Z,1011.24
2022-08-26T12:12:22.296Z,1011.20
2022-08-26T12:13:22.567Z,1011.15
2022-08-26T12:14:21.637Z,1011.11
2022-08-26T12:15:24.122Z,1011.17
2022-08-26T12:16:22.283Z,1011.16
2022-08-26T12:17:22.444Z,1011.16
2022-08-26T12:18:28.874Z,1011.19
2022-08-26T12:19:22.564Z,1011.14
2022-08-26T12:20:21.542Z,1011.16
2022-08-26T12:21:22.575Z,1011.14
2022-08-26T12:22:22.206Z,1011.15
2022-08-26T12:23:21.524Z,1011.18
2022-08-26T12:24:22.166Z,1011.15
2022-08-26T12:25:21.525Z,1011.17
2022-08-26T12:26:21.467Z,1011.12
2022-08-26T12:27:21.486Z,1011.11
2022-08-26T12:28:21.452Z,1011.11
2022-08-26T12:29:27.176Z,1011.05
2022-08-26T12:30:23.327Z,1011.03
2022-08-26T12:31:22.491Z,1011.01
2022-08-26T12:32:21.444Z,1011.03